sensor_id;sensor_type;location;lat;lon;timestamp;P1;durP1;ratioP1;P2;durP2;ratioP2
17141;SDS011;32805;53.556;9.944;2022-12-20T00:01:00;11.10;;;7.70;;
17141;SDS011;32805;53.556;9.944;2022-12-20T00:03:27;9.65;;;6.82;;
17141;SDS011;32805;53.556;9.944;2022-12-20T00:05:55;10.60;;;6.65;;
17141;SDS011;32805;53.556;9.944;2022-12-20T00:08:23;10.57;;;7.40;;
17141;SDS011;32805;53.556;9.944;2022-12-20T00:10:51;9.52;;;6.50;;
17141;SDS011;32805;53.556;9.944;2022-12-20T00:13:19;9.60;;;7.05;;
17141;SDS011;32805;53.556;9.944;2022-12-20T00:15:48;10.68;;;7.15;;
17141;SDS011;32805;53.556;9.944;2022-12-20T00:18:16;8.90;;;6.80;;
17141;SDS011;32805;53.556;9.944;2022-12-20T00:20:43;14.55;;;7.43;;
17141;SDS011;32805;53.556;9.944;2022-12-20T00:23:11;11.70;;;7.43;;
17141;SDS011;32805;53.556;9.944;2022-12-20T00:25:39;12.30;;;7.30;;
17141;SDS011;32805;53.556;9.944;2022-12-20T00:28:07;10.65;;;6.80;;
17141;SDS011;32805;53.556;9.944;2022-12-20T00:30:35;11.15;;;7.05;;
17141;SDS011;32805;53.556;9.944;2022-12-20T00:33:04;9.30;;;7.00;;
17141;SDS011;32805;53.556;9.944;2022-12-20T00:35:32;10.02;;;7.53;;
17141;SDS011;32805;53.556;9.944;2022-12-20T00:38:00;11.48;;;7.28;;
17141;SDS011;32805;53.556;9.944;2022-12-20T00:40:28;11.00;;;7.63;;
17141;SDS011;32805;53.556;9.944;2022-12-20T00:42:56;9.05;;;7.15;;
17141;SDS011;32805;53.556;9.944;2022-12-20T00:45:27;9.90;;;7.05;;
17141;SDS011;32805;53.556;9.944;2022-12-20T00:47:54;12.13;;;7.82;;
17141;SDS011;32805;53.556;9.944;2022-12-20T00:50:24;9.05;;;7.15;;
17141;SDS011;32805;53.556;9.944;2022-12-20T00:52:52;7.47;;;6.28;;
17141;SDS011;32805;53.556;9.944;2022-12-20T00:55:20;11.52;;;7.55;;
17141;SDS011;32805;53.556;9.944;2022-12-20T00:57:48;10.13;;;7.35;;
17141;SDS011;32805;53.556;9.944;2022-12-20T01:00:16;11.43;;;7.78;;
17141;SDS011;32805;53.556;9.944;2022-12-20T01:02:45;10.65;;;7.38;;
17141;SDS011;32805;53.556;9.944;2022-12-20T01:05:13;10.73;;;8.18;;
17141;SDS011;32805;53.556;9.944;2022-12-20T01:07:42;9.52;;;6.88;;
17141;SDS011;32805;53.556;9.944;2022-12-20T01:10:10;10.35;;;7.57;;
17141;SDS011;32805;53.556;9.944;2022-12-20T01:12:38;10.88;;;7.35;;
17141;SDS011;32805;53.556;9.944;2022-12-20T01:15:07;9.00;;;6.40;;
17141;SDS011;32805;53.556;9.944;2022-12-20T01:17:35;9.02;;;6.75;;
17141;SDS011;32805;53.556;9.944;2022-12-20T01:20:03;11.88;;;7.05;;
17141;SDS011;32805;53.556;9.944;2022-12-20T01:22:32;9.07;;;7.00;;
17141;SDS011;32805;53.556;9.944;2022-12-20T01:25:02;9.90;;;6.97;;
17141;SDS011;32805;53.556;9.944;2022-12-20T01:27:30;11.45;;;7.95;;
17141;SDS011;32805;53.556;9.944;2022-12-20T01:29:58;8.93;;;6.85;;
17141;SDS011;32805;53.556;9.944;2022-12-20T01:32:25;10.88;;;6.97;;
17141;SDS011;32805;53.556;9.944;2022-12-20T01:34:53;10.40;;;6.53;;
17141;SDS011;32805;53.556;9.944;2022-12-20T01:37:21;9.80;;;6.88;;
17141;SDS011;32805;53.556;9.944;2022-12-20T01:39:48;11.30;;;6.80;;
17141;SDS011;32805;53.556;9.944;2022-12-20T01:42:18;9.55;;;6.75;;
17141;SDS011;32805;53.556;9.944;2022-12-20T01:44:50;10.23;;;6.78;;
17141;SDS011;32805;53.556;9.944;2022-12-20T01:47:21;10.05;;;7.30;;
17141;SDS011;32805;53.556;9.944;2022-12-20T01:49:51;11.63;;;6.95;;
17141;SDS011;32805;53.556;9.944;2022-12-20T01:52:24;7.85;;;6.70;;
17141;SDS011;32805;53.556;9.944;2022-12-20T01:54:57;10.30;;;6.97;;
17141;SDS011;32805;53.556;9.944;2022-12-20T01:57:33;10.73;;;6.60;;
17141;SDS011;32805;53.556;9.944;2022-12-20T02:00:04;8.07;;;6.82;;
17141;SDS011;32805;53.556;9.944;2022-12-20T02:02:38;8.77;;;6.90;;
17141;SDS011;32805;53.556;9.944;2022-12-20T02:05:09;9.57;;;6.57;;
17141;SDS011;32805;53.556;9.944;2022-12-20T02:07:43;7.07;;;5.53;;
17141;SDS011;32805;53.556;9.944;2022-12-20T02:10:15;8.60;;;6.60;;
17141;SDS011;32805;53.556;9.944;2022-12-20T02:12:46;10.05;;;6.75;;
17141;SDS011;32805;53.556;9.944;2022-12-20T02:15:19;9.32;;;6.68;;
17141;SDS011;32805;53.556;9.944;2022-12-20T02:17:59;10.48;;;7.22;;
17141;SDS011;32805;53.556;9.944;2022-12-20T02:20:45;10.48;;;6.70;;
17141;SDS011;32805;53.556;9.944;2022-12-20T02:23:32;9.55;;;6.90;;
17141;SDS011;32805;53.556;9.944;2022-12-20T02:26:16;8.45;;;6.68;;
17141;SDS011;32805;53.556;9.944;2022-12-20T02:29:14;10.73;;;6.53;;
17141;SDS011;32805;53.556;9.944;2022-12-20T02:31:56;11.90;;;6.78;;
17141;SDS011;32805;53.556;9.944;2022-12-20T02:34:30;7.75;;;6.10;;
17141;SDS011;32805;53.556;9.944;2022-12-20T02:37:00;13.88;;;7.00;;
17141;SDS011;32805;53.556;9.944;2022-12-20T02:39:28;9.73;;;6.07;;
17141;SDS011;32805;53.556;9.944;2022-12-20T02:41:58;8.38;;;6.22;;
17141;SDS011;32805;53.556;9.944;2022-12-20T02:44:30;7.47;;;6.03;;
17141;SDS011;32805;53.556;9.944;2022-12-20T02:47:21;10.88;;;6.38;;
17141;SDS011;32805;53.556;9.944;2022-12-20T02:49:52;7.72;;;5.72;;
17141;SDS011;32805;53.556;9.944;2022-12-20T02:52:22;10.25;;;6.15;;
17141;SDS011;32805;53.556;9.944;2022-12-20T02:54:56;9.20;;;6.50;;
17141;SDS011;32805;53.556;9.944;2022-12-20T02:57:28;8.38;;;5.65;;
17141;SDS011;32805;53.556;9.944;2022-12-20T03:00:03;7.45;;;6.07;;
17141;SDS011;32805;53.556;9.944;2022-12-20T03:02:35;7.72;;;5.97;;
17141;SDS011;32805;53.556;9.944;2022-12-20T03:05:20;9.20;;;6.07;;
17141;SDS011;32805;53.556;9.944;2022-12-20T03:07:49;8.40;;;5.63;;
17141;SDS011;32805;53.556;9.944;2022-12-20T03:10:20;7.85;;;5.65;;
17141;SDS011;32805;53.556;9.944;2022-12-20T03:15:59;10.30;;;5.88;;
17141;SDS011;32805;53.556;9.944;2022-12-20T03:18:28;10.73;;;5.93;;
17141;SDS011;32805;53.556;9.944;2022-12-20T03:20:56;6.85;;;5.20;;
17141;SDS011;32805;53.556;9.944;2022-12-20T03:23:24;9.35;;;5.90;;
17141;SDS011;32805;53.556;9.944;2022-12-20T03:25:52;8.35;;;5.25;;
17141;SDS011;32805;53.556;9.944;2022-12-20T03:28:28;7.13;;;5.13;;
17141;SDS011;32805;53.556;9.944;2022-12-20T03:30:56;9.55;;;5.72;;
17141;SDS011;32805;53.556;9.944;2022-12-20T03:33:24;8.13;;;5.90;;
17141;SDS011;32805;53.556;9.944;2022-12-20T03:35:54;10.10;;;5.47;;
17141;SDS011;32805;53.556;9.944;2022-12-20T03:38:22;7.65;;;5.30;;
17141;SDS011;32805;53.556;9.944;2022-12-20T03:40:49;7.43;;;5.32;;
17141;SDS011;32805;53.556;9.944;2022-12-20T03:43:20;7.80;;;5.65;;
17141;SDS011;32805;53.556;9.944;2022-12-20T03:45:47;8.23;;;5.18;;
17141;SDS011;32805;53.556;9.944;2022-12-20T03:48:16;8.38;;;5.55;;
17141;SDS011;32805;53.556;9.944;2022-12-20T03:50:44;9.07;;;6.35;;
17141;SDS011;32805;53.556;9.944;2022-12-20T03:53:15;9.20;;;5.95;;
17141;SDS011;32805;53.556;9.944;2022-12-20T03:55:43;8.82;;;5.80;;
17141;SDS011;32805;53.556;9.944;2022-12-20T03:58:14;10.68;;;6.18;;
17141;SDS011;32805;53.556;9.944;2022-12-20T04:00:42;8.98;;;6.05;;
17141;SDS011;32805;53.556;9.944;2022-12-20T04:03:29;8.45;;;5.32;;
17141;SDS011;32805;53.556;9.944;2022-12-20T04:06:02;8.98;;;5.97;;
17141;SDS011;32805;53.556;9.944;2022-12-20T04:08:31;9.02;;;5.85;;
17141;SDS011;32805;53.556;9.944;2022-12-20T04:10:59;8.73;;;5.82;;
17141;SDS011;32805;53.556;9.944;2022-12-20T04:13:53;8.15;;;5.25;;
17141;SDS011;32805;53.556;9.944;2022-12-20T04:16:22;6.60;;;4.88;;
17141;SDS011;32805;53.556;9.944;2022-12-20T04:18:53;8.48;;;5.03;;
17141;SDS011;32805;53.556;9.944;2022-12-20T04:21:22;8.55;;;5.82;;
17141;SDS011;32805;53.556;9.944;2022-12-20T04:23:55;8.55;;;5.00;;
17141;SDS011;32805;53.556;9.944;2022-12-20T04:26:33;7.15;;;4.82;;
17141;SDS011;32805;53.556;9.944;2022-12-20T04:29:02;6.97;;;5.35;;
17141;SDS011;32805;53.556;9.944;2022-12-20T04:31:31;6.32;;;4.68;;
17141;SDS011;32805;53.556;9.944;2022-12-20T04:33:59;7.43;;;6.28;;
17141;SDS011;32805;53.556;9.944;2022-12-20T04:36:29;7.43;;;5.13;;
17141;SDS011;32805;53.556;9.944;2022-12-20T04:39:01;5.53;;;4.90;;
17141;SDS011;32805;53.556;9.944;2022-12-20T04:41:37;6.55;;;5.07;;
17141;SDS011;32805;53.556;9.944;2022-12-20T04:44:09;8.32;;;5.32;;
17141;SDS011;32805;53.556;9.944;2022-12-20T04:46:37;8.73;;;5.00;;
17141;SDS011;32805;53.556;9.944;2022-12-20T04:49:09;5.65;;;4.43;;
17141;SDS011;32805;53.556;9.944;2022-12-20T04:51:40;6.57;;;4.32;;
17141;SDS011;32805;53.556;9.944;2022-12-20T04:54:11;8.85;;;4.65;;
17141;SDS011;32805;53.556;9.944;2022-12-20T04:56:47;7.60;;;4.38;;
17141;SDS011;32805;53.556;9.944;2022-12-20T04:59:19;8.50;;;5.63;;
17141;SDS011;32805;53.556;9.944;2022-12-20T05:01:50;6.05;;;5.22;;
17141;SDS011;32805;53.556;9.944;2022-12-20T05:04:34;7.90;;;5.22;;
17141;SDS011;32805;53.556;9.944;2022-12-20T05:07:03;9.10;;;5.82;;
17141;SDS011;32805;53.556;9.944;2022-12-20T05:09:34;8.20;;;5.35;;
17141;SDS011;32805;53.556;9.944;2022-12-20T05:12:02;8.10;;;5.63;;
17141;SDS011;32805;53.556;9.944;2022-12-20T05:14:31;8.23;;;5.55;;
17141;SDS011;32805;53.556;9.944;2022-12-20T05:16:59;9.60;;;5.72;;
17141;SDS011;32805;53.556;9.944;2022-12-20T05:19:27;10.02;;;5.57;;
17141;SDS011;32805;53.556;9.944;2022-12-20T05:21:55;13.95;;;7.18;;
17141;SDS011;32805;53.556;9.944;2022-12-20T05:24:54;8.98;;;5.75;;
17141;SDS011;32805;53.556;9.944;2022-12-20T05:27:40;7.55;;;5.53;;
17141;SDS011;32805;53.556;9.944;2022-12-20T05:30:08;8.23;;;5.80;;
17141;SDS011;32805;53.556;9.944;2022-12-20T05:32:39;9.05;;;6.47;;
17141;SDS011;32805;53.556;9.944;2022-12-20T05:35:07;9.65;;;6.40;;
17141;SDS011;32805;53.556;9.944;2022-12-20T05:37:36;7.82;;;6.18;;
17141;SDS011;32805;53.556;9.944;2022-12-20T05:40:13;11.43;;;6.50;;
17141;SDS011;32805;53.556;9.944;2022-12-20T05:42:43;11.98;;;6.45;;
17141;SDS011;32805;53.556;9.944;2022-12-20T05:45:12;7.25;;;5.82;;
17141;SDS011;32805;53.556;9.944;2022-12-20T05:47:47;10.43;;;6.95;;
17141;SDS011;32805;53.556;9.944;2022-12-20T05:50:15;10.80;;;6.75;;
17141;SDS011;32805;53.556;9.944;2022-12-20T05:53:03;6.10;;;5.07;;
17141;SDS011;32805;53.556;9.944;2022-12-20T05:55:43;7.18;;;5.40;;
17141;SDS011;32805;53.556;9.944;2022-12-20T05:58:12;6.45;;;5.35;;
17141;SDS011;32805;53.556;9.944;2022-12-20T06:00:50;7.43;;;5.15;;
17141;SDS011;32805;53.556;9.944;2022-12-20T06:03:19;6.57;;;5.78;;
17141;SDS011;32805;53.556;9.944;2022-12-20T06:05:48;8.30;;;6.00;;
17141;SDS011;32805;53.556;9.944;2022-12-20T06:08:22;8.52;;;5.55;;
17141;SDS011;32805;53.556;9.944;2022-12-20T06:11:01;10.02;;;5.93;;
17141;SDS011;32805;53.556;9.944;2022-12-20T06:13:36;6.68;;;5.45;;
17141;SDS011;32805;53.556;9.944;2022-12-20T06:16:06;9.63;;;5.38;;
17141;SDS011;32805;53.556;9.944;2022-12-20T06:18:34;8.52;;;5.55;;
17141;SDS011;32805;53.556;9.944;2022-12-20T06:21:02;8.60;;;5.72;;
17141;SDS011;32805;53.556;9.944;2022-12-20T06:23:30;9.10;;;6.57;;
17141;SDS011;32805;53.556;9.944;2022-12-20T06:26:09;9.32;;;6.32;;
17141;SDS011;32805;53.556;9.944;2022-12-20T06:28:48;9.82;;;6.28;;
17141;SDS011;32805;53.556;9.944;2022-12-20T06:31:27;6.85;;;5.82;;
17141;SDS011;32805;53.556;9.944;2022-12-20T06:33:55;10.45;;;6.95;;
17141;SDS011;32805;53.556;9.944;2022-12-20T06:36:28;9.13;;;6.13;;
17141;SDS011;32805;53.556;9.944;2022-12-20T06:39:04;8.13;;;6.10;;
17141;SDS011;32805;53.556;9.944;2022-12-20T06:41:48;7.55;;;6.03;;
17141;SDS011;32805;53.556;9.944;2022-12-20T06:44:18;8.45;;;6.20;;
17141;SDS011;32805;53.556;9.944;2022-12-20T06:46:48;9.23;;;5.43;;
17141;SDS011;32805;53.556;9.944;2022-12-20T06:49:16;9.07;;;5.82;;
17141;SDS011;32805;53.556;9.944;2022-12-20T06:51:47;10.77;;;5.88;;
17141;SDS011;32805;53.556;9.944;2022-12-20T06:54:18;7.28;;;5.45;;
17141;SDS011;32805;53.556;9.944;2022-12-20T06:56:46;8.65;;;5.35;;
17141;SDS011;32805;53.556;9.944;2022-12-20T06:59:16;8.00;;;5.07;;
17141;SDS011;32805;53.556;9.944;2022-12-20T07:01:45;7.97;;;5.38;;
17141;SDS011;32805;53.556;9.944;2022-12-20T07:04:13;10.10;;;6.03;;
17141;SDS011;32805;53.556;9.944;2022-12-20T07:06:41;6.53;;;5.20;;
17141;SDS011;32805;53.556;9.944;2022-12-20T07:09:09;10.95;;;6.43;;
17141;SDS011;32805;53.556;9.944;2022-12-20T07:11:36;11.82;;;6.65;;
17141;SDS011;32805;53.556;9.944;2022-12-20T07:14:04;9.50;;;6.10;;
17141;SDS011;32805;53.556;9.944;2022-12-20T07:16:33;10.85;;;6.75;;
17141;SDS011;32805;53.556;9.944;2022-12-20T07:19:02;11.35;;;5.88;;
17141;SDS011;32805;53.556;9.944;2022-12-20T07:21:30;9.45;;;6.57;;
17141;SDS011;32805;53.556;9.944;2022-12-20T07:23:58;6.40;;;5.57;;
17141;SDS011;32805;53.556;9.944;2022-12-20T07:26:26;8.68;;;6.28;;
17141;SDS011;32805;53.556;9.944;2022-12-20T07:28:54;8.38;;;5.85;;
17141;SDS011;32805;53.556;9.944;2022-12-20T07:31:22;9.98;;;6.88;;
17141;SDS011;32805;53.556;9.944;2022-12-20T07:33:53;10.77;;;6.93;;
17141;SDS011;32805;53.556;9.944;2022-12-20T07:36:23;6.93;;;6.07;;
17141;SDS011;32805;53.556;9.944;2022-12-20T07:38:54;10.45;;;6.45;;
17141;SDS011;32805;53.556;9.944;2022-12-20T07:41:23;7.85;;;6.07;;
17141;SDS011;32805;53.556;9.944;2022-12-20T07:43:51;9.05;;;6.22;;
17141;SDS011;32805;53.556;9.944;2022-12-20T07:46:24;9.10;;;6.10;;
17141;SDS011;32805;53.556;9.944;2022-12-20T07:48:53;6.55;;;5.88;;
17141;SDS011;32805;53.556;9.944;2022-12-20T07:51:25;11.63;;;6.05;;
17141;SDS011;32805;53.556;9.944;2022-12-20T07:53:57;8.93;;;6.55;;
17141;SDS011;32805;53.556;9.944;2022-12-20T07:56:30;7.88;;;5.97;;
17141;SDS011;32805;53.556;9.944;2022-12-20T07:59:06;6.55;;;5.57;;
17141;SDS011;32805;53.556;9.944;2022-12-20T08:01:35;9.45;;;6.97;;
17141;SDS011;32805;53.556;9.944;2022-12-20T08:04:06;7.97;;;5.25;;
17141;SDS011;32805;53.556;9.944;2022-12-20T08:06:38;9.13;;;5.57;;
17141;SDS011;32805;53.556;9.944;2022-12-20T08:09:07;9.80;;;6.10;;
17141;SDS011;32805;53.556;9.944;2022-12-20T08:11:38;9.27;;;5.68;;
17141;SDS011;32805;53.556;9.944;2022-12-20T08:14:07;8.00;;;5.72;;
17141;SDS011;32805;53.556;9.944;2022-12-20T08:16:36;9.60;;;5.60;;
17141;SDS011;32805;53.556;9.944;2022-12-20T08:19:03;9.30;;;5.88;;
17141;SDS011;32805;53.556;9.944;2022-12-20T08:21:33;8.30;;;5.97;;
17141;SDS011;32805;53.556;9.944;2022-12-20T08:24:00;11.40;;;5.50;;
17141;SDS011;32805;53.556;9.944;2022-12-20T08:26:28;8.57;;;5.53;;
17141;SDS011;32805;53.556;9.944;2022-12-20T08:28:57;8.65;;;5.80;;
17141;SDS011;32805;53.556;9.944;2022-12-20T08:31:24;8.68;;;5.20;;
17141;SDS011;32805;53.556;9.944;2022-12-20T08:33:52;7.20;;;4.85;;
17141;SDS011;32805;53.556;9.944;2022-12-20T08:36:22;7.43;;;4.97;;
17141;SDS011;32805;53.556;9.944;2022-12-20T08:38:53;9.50;;;5.28;;
17141;SDS011;32805;53.556;9.944;2022-12-20T08:41:21;6.93;;;5.05;;
17141;SDS011;32805;53.556;9.944;2022-12-20T08:43:49;6.20;;;4.55;;
17141;SDS011;32805;53.556;9.944;2022-12-20T08:46:17;7.30;;;5.20;;
17141;SDS011;32805;53.556;9.944;2022-12-20T08:48:48;6.32;;;5.03;;
17141;SDS011;32805;53.556;9.944;2022-12-20T08:51:16;6.90;;;5.45;;
17141;SDS011;32805;53.556;9.944;2022-12-20T08:54:01;7.10;;;5.28;;
17141;SDS011;32805;53.556;9.944;2022-12-20T08:56:35;9.50;;;6.07;;
17141;SDS011;32805;53.556;9.944;2022-12-20T08:59:06;11.50;;;5.85;;
17141;SDS011;32805;53.556;9.944;2022-12-20T09:01:35;6.15;;;5.10;;
17141;SDS011;32805;53.556;9.944;2022-12-20T09:04:03;6.85;;;5.03;;
17141;SDS011;32805;53.556;9.944;2022-12-20T09:06:38;7.45;;;5.50;;
17141;SDS011;32805;53.556;9.944;2022-12-20T09:09:08;9.27;;;6.22;;
17141;SDS011;32805;53.556;9.944;2022-12-20T09:11:39;6.40;;;5.50;;
17141;SDS011;32805;53.556;9.944;2022-12-20T09:14:07;8.60;;;5.22;;
17141;SDS011;32805;53.556;9.944;2022-12-20T09:16:36;7.88;;;5.20;;
17141;SDS011;32805;53.556;9.944;2022-12-20T09:19:04;8.52;;;5.30;;
17141;SDS011;32805;53.556;9.944;2022-12-20T09:21:32;7.40;;;5.35;;
17141;SDS011;32805;53.556;9.944;2022-12-20T09:24:00;8.35;;;5.72;;
17141;SDS011;32805;53.556;9.944;2022-12-20T09:26:30;7.05;;;5.15;;
17141;SDS011;32805;53.556;9.944;2022-12-20T09:28:58;6.45;;;5.15;;
17141;SDS011;32805;53.556;9.944;2022-12-20T09:31:27;6.93;;;5.05;;
17141;SDS011;32805;53.556;9.944;2022-12-20T09:33:56;7.60;;;5.43;;
17141;SDS011;32805;53.556;9.944;2022-12-20T09:36:26;7.68;;;5.18;;
17141;SDS011;32805;53.556;9.944;2022-12-20T09:38:55;9.52;;;5.95;;
17141;SDS011;32805;53.556;9.944;2022-12-20T09:41:24;6.63;;;5.50;;
17141;SDS011;32805;53.556;9.944;2022-12-20T09:43:57;9.43;;;5.50;;
17141;SDS011;32805;53.556;9.944;2022-12-20T09:46:27;8.27;;;5.90;;
17141;SDS011;32805;53.556;9.944;2022-12-20T09:48:55;7.78;;;5.07;;
17141;SDS011;32805;53.556;9.944;2022-12-20T09:51:30;7.90;;;5.00;;
17141;SDS011;32805;53.556;9.944;2022-12-20T09:54:13;9.85;;;6.07;;
17141;SDS011;32805;53.556;9.944;2022-12-20T09:56:50;7.28;;;5.97;;
17141;SDS011;32805;53.556;9.944;2022-12-20T09:59:26;8.07;;;5.65;;
17141;SDS011;32805;53.556;9.944;2022-12-20T10:02:07;10.40;;;6.00;;
17141;SDS011;32805;53.556;9.944;2022-12-20T10:04:57;9.90;;;6.55;;
17141;SDS011;32805;53.556;9.944;2022-12-20T10:07:29;6.72;;;5.90;;
17141;SDS011;32805;53.556;9.944;2022-12-20T10:10:19;8.40;;;6.22;;
17141;SDS011;32805;53.556;9.944;2022-12-20T10:12:56;9.80;;;6.18;;
17141;SDS011;32805;53.556;9.944;2022-12-20T10:15:32;10.13;;;6.65;;
17141;SDS011;32805;53.556;9.944;2022-12-20T10:18:10;7.35;;;6.47;;
17141;SDS011;32805;53.556;9.944;2022-12-20T10:20:52;10.88;;;6.65;;
17141;SDS011;32805;53.556;9.944;2022-12-20T10:23:27;9.10;;;6.78;;
17141;SDS011;32805;53.556;9.944;2022-12-20T10:25:59;10.55;;;6.32;;
17141;SDS011;32805;53.556;9.944;2022-12-20T10:28:28;7.93;;;6.38;;
17141;SDS011;32805;53.556;9.944;2022-12-20T10:31:00;9.75;;;6.20;;
17141;SDS011;32805;53.556;9.944;2022-12-20T10:33:38;10.10;;;6.07;;
17141;SDS011;32805;53.556;9.944;2022-12-20T10:36:18;9.15;;;4.82;;
17141;SDS011;32805;53.556;9.944;2022-12-20T10:38:52;8.80;;;5.43;;
17141;SDS011;32805;53.556;9.944;2022-12-20T10:41:23;8.48;;;4.75;;
17141;SDS011;32805;53.556;9.944;2022-12-20T10:43:53;7.95;;;5.45;;
17141;SDS011;32805;53.556;9.944;2022-12-20T10:46:34;7.35;;;5.45;;
17141;SDS011;32805;53.556;9.944;2022-12-20T10:49:19;5.75;;;4.95;;
17141;SDS011;32805;53.556;9.944;2022-12-20T10:51:57;8.88;;;5.28;;
17141;SDS011;32805;53.556;9.944;2022-12-20T10:54:33;7.22;;;4.70;;
17141;SDS011;32805;53.556;9.944;2022-12-20T10:57:03;9.50;;;4.93;;
17141;SDS011;32805;53.556;9.944;2022-12-20T10:59:44;10.65;;;4.28;;
17141;SDS011;32805;53.556;9.944;2022-12-20T11:02:24;7.97;;;5.20;;
17141;SDS011;32805;53.556;9.944;2022-12-20T11:05:16;6.43;;;4.70;;
17141;SDS011;32805;53.556;9.944;2022-12-20T11:07:52;7.38;;;5.05;;
17141;SDS011;32805;53.556;9.944;2022-12-20T11:10:41;5.63;;;4.03;;
17141;SDS011;32805;53.556;9.944;2022-12-20T11:13:18;6.20;;;4.68;;
17141;SDS011;32805;53.556;9.944;2022-12-20T11:15:48;6.43;;;4.00;;
17141;SDS011;32805;53.556;9.944;2022-12-20T11:18:20;6.93;;;4.05;;
17141;SDS011;32805;53.556;9.944;2022-12-20T11:20:55;5.30;;;3.65;;
17141;SDS011;32805;53.556;9.944;2022-12-20T11:23:31;5.18;;;3.90;;
17141;SDS011;32805;53.556;9.944;2022-12-20T11:26:06;5.53;;;3.88;;
17141;SDS011;32805;53.556;9.944;2022-12-20T11:28:48;4.88;;;4.03;;
17141;SDS011;32805;53.556;9.944;2022-12-20T11:31:33;4.90;;;3.58;;
17141;SDS011;32805;53.556;9.944;2022-12-20T11:34:13;6.15;;;4.82;;
17141;SDS011;32805;53.556;9.944;2022-12-20T11:36:54;3.97;;;3.38;;
17141;SDS011;32805;53.556;9.944;2022-12-20T11:39:33;4.80;;;3.72;;
17141;SDS011;32805;53.556;9.944;2022-12-20T11:42:12;5.40;;;3.58;;
17141;SDS011;32805;53.556;9.944;2022-12-20T11:44:50;5.80;;;3.90;;
17141;SDS011;32805;53.556;9.944;2022-12-20T11:47:38;5.75;;;3.50;;
17141;SDS011;32805;53.556;9.944;2022-12-20T11:53:19;6.03;;;3.40;;
17141;SDS011;32805;53.556;9.944;2022-12-20T11:55:53;6.40;;;4.30;;
17141;SDS011;32805;53.556;9.944;2022-12-20T11:58:28;5.22;;;3.55;;
17141;SDS011;32805;53.556;9.944;2022-12-20T12:01:00;4.30;;;3.70;;
17141;SDS011;32805;53.556;9.944;2022-12-20T12:03:33;4.68;;;3.63;;
17141;SDS011;32805;53.556;9.944;2022-12-20T12:06:04;5.43;;;3.60;;
17141;SDS011;32805;53.556;9.944;2022-12-20T12:08:39;6.63;;;3.70;;
17141;SDS011;32805;53.556;9.944;2022-12-20T12:11:13;4.63;;;3.30;;
17141;SDS011;32805;53.556;9.944;2022-12-20T12:14:05;6.50;;;3.65;;
17141;SDS011;32805;53.556;9.944;2022-12-20T12:16:38;5.97;;;3.90;;
17141;SDS011;32805;53.556;9.944;2022-12-20T12:19:17;5.75;;;3.90;;
17141;SDS011;32805;53.556;9.944;2022-12-20T12:21:47;6.05;;;3.97;;
17141;SDS011;32805;53.556;9.944;2022-12-20T12:24:22;4.88;;;3.90;;
17141;SDS011;32805;53.556;9.944;2022-12-20T12:26:57;6.28;;;4.40;;
17141;SDS011;32805;53.556;9.944;2022-12-20T12:29:26;7.68;;;4.28;;
17141;SDS011;32805;53.556;9.944;2022-12-20T12:31:59;7.40;;;4.30;;
17141;SDS011;32805;53.556;9.944;2022-12-20T12:34:41;6.53;;;4.47;;
17141;SDS011;32805;53.556;9.944;2022-12-20T12:37:31;5.80;;;4.03;;
17141;SDS011;32805;53.556;9.944;2022-12-20T12:43:22;6.03;;;4.70;;
17141;SDS011;32805;53.556;9.944;2022-12-20T12:46:15;7.45;;;4.57;;
17141;SDS011;32805;53.556;9.944;2022-12-20T12:48:47;8.07;;;5.32;;
17141;SDS011;32805;53.556;9.944;2022-12-20T12:51:22;13.77;;;5.70;;
17141;SDS011;32805;53.556;9.944;2022-12-20T12:54:02;9.10;;;5.22;;
17141;SDS011;32805;53.556;9.944;2022-12-20T12:56:40;8.75;;;5.82;;
17141;SDS011;32805;53.556;9.944;2022-12-20T13:05:30;5.75;;;5.20;;
17141;SDS011;32805;53.556;9.944;2022-12-20T13:08:00;8.68;;;5.05;;
17141;SDS011;32805;53.556;9.944;2022-12-20T13:13:35;8.00;;;5.53;;
17141;SDS011;32805;53.556;9.944;2022-12-20T13:16:10;8.50;;;5.88;;
17141;SDS011;32805;53.556;9.944;2022-12-20T13:21:42;7.68;;;5.93;;
17141;SDS011;32805;53.556;9.944;2022-12-20T13:27:14;7.53;;;5.32;;
17141;SDS011;32805;53.556;9.944;2022-12-20T13:35:54;7.30;;;5.20;;
17141;SDS011;32805;53.556;9.944;2022-12-20T13:38:35;7.40;;;5.63;;
17141;SDS011;32805;53.556;9.944;2022-12-20T13:41:26;8.02;;;5.97;;
17141;SDS011;32805;53.556;9.944;2022-12-20T13:44:23;7.18;;;5.50;;
17141;SDS011;32805;53.556;9.944;2022-12-20T13:47:05;8.05;;;5.53;;
17141;SDS011;32805;53.556;9.944;2022-12-20T13:49:41;8.40;;;5.97;;
17141;SDS011;32805;53.556;9.944;2022-12-20T13:52:11;9.25;;;6.00;;
17141;SDS011;32805;53.556;9.944;2022-12-20T13:54:46;8.00;;;5.78;;
17141;SDS011;32805;53.556;9.944;2022-12-20T13:57:16;11.38;;;5.90;;
17141;SDS011;32805;53.556;9.944;2022-12-20T13:59:54;9.32;;;6.07;;
17141;SDS011;32805;53.556;9.944;2022-12-20T14:02:34;8.68;;;6.43;;
17141;SDS011;32805;53.556;9.944;2022-12-20T14:05:12;7.25;;;5.60;;
17141;SDS011;32805;53.556;9.944;2022-12-20T14:07:44;8.90;;;5.65;;
17141;SDS011;32805;53.556;9.944;2022-12-20T14:10:17;10.85;;;7.45;;
17141;SDS011;32805;53.556;9.944;2022-12-20T14:12:48;7.63;;;5.95;;
17141;SDS011;32805;53.556;9.944;2022-12-20T14:15:21;9.38;;;6.18;;
17141;SDS011;32805;53.556;9.944;2022-12-20T14:17:55;7.75;;;6.03;;
17141;SDS011;32805;53.556;9.944;2022-12-20T14:20:24;9.02;;;6.05;;
17141;SDS011;32805;53.556;9.944;2022-12-20T14:22:56;8.65;;;5.93;;
17141;SDS011;32805;53.556;9.944;2022-12-20T14:25:34;8.10;;;6.22;;
17141;SDS011;32805;53.556;9.944;2022-12-20T14:28:05;9.65;;;5.88;;
17141;SDS011;32805;53.556;9.944;2022-12-20T14:30:52;7.35;;;5.50;;
17141;SDS011;32805;53.556;9.944;2022-12-20T14:33:24;7.70;;;6.20;;
17141;SDS011;32805;53.556;9.944;2022-12-20T14:35:56;7.78;;;5.82;;
17141;SDS011;32805;53.556;9.944;2022-12-20T14:38:28;6.95;;;5.53;;
17141;SDS011;32805;53.556;9.944;2022-12-20T14:40:56;8.65;;;5.80;;
17141;SDS011;32805;53.556;9.944;2022-12-20T14:43:25;8.27;;;6.63;;
17141;SDS011;32805;53.556;9.944;2022-12-20T14:46:14;9.55;;;6.57;;
17141;SDS011;32805;53.556;9.944;2022-12-20T14:48:46;8.02;;;6.50;;
17141;SDS011;32805;53.556;9.944;2022-12-20T14:51:18;9.85;;;6.82;;
17141;SDS011;32805;53.556;9.944;2022-12-20T14:53:47;8.88;;;6.25;;
17141;SDS011;32805;53.556;9.944;2022-12-20T14:56:19;8.80;;;6.38;;
17141;SDS011;32805;53.556;9.944;2022-12-20T14:59:00;8.15;;;6.22;;
17141;SDS011;32805;53.556;9.944;2022-12-20T15:01:33;13.30;;;7.93;;
17141;SDS011;32805;53.556;9.944;2022-12-20T15:04:19;10.57;;;7.05;;
17141;SDS011;32805;53.556;9.944;2022-12-20T15:06:49;8.57;;;6.93;;
17141;SDS011;32805;53.556;9.944;2022-12-20T15:09:18;9.38;;;6.80;;
17141;SDS011;32805;53.556;9.944;2022-12-20T15:11:46;11.20;;;6.78;;
17141;SDS011;32805;53.556;9.944;2022-12-20T15:14:20;7.88;;;7.07;;
17141;SDS011;32805;53.556;9.944;2022-12-20T15:16:52;10.35;;;6.72;;
17141;SDS011;32805;53.556;9.944;2022-12-20T15:19:21;8.90;;;6.43;;
17141;SDS011;32805;53.556;9.944;2022-12-20T15:21:49;8.25;;;5.85;;
17141;SDS011;32805;53.556;9.944;2022-12-20T15:24:18;7.85;;;6.63;;
17141;SDS011;32805;53.556;9.944;2022-12-20T15:26:48;9.60;;;7.28;;
17141;SDS011;32805;53.556;9.944;2022-12-20T15:29:16;9.90;;;6.60;;
17141;SDS011;32805;53.556;9.944;2022-12-20T15:31:45;10.10;;;7.00;;
17141;SDS011;32805;53.556;9.944;2022-12-20T15:34:15;11.82;;;7.28;;
17141;SDS011;32805;53.556;9.944;2022-12-20T15:36:47;8.02;;;6.22;;
17141;SDS011;32805;53.556;9.944;2022-12-20T15:39:15;9.93;;;7.28;;
17141;SDS011;32805;53.556;9.944;2022-12-20T15:41:44;8.02;;;6.80;;
17141;SDS011;32805;53.556;9.944;2022-12-20T15:44:14;10.60;;;7.65;;
17141;SDS011;32805;53.556;9.944;2022-12-20T15:46:43;8.13;;;6.80;;
17141;SDS011;32805;53.556;9.944;2022-12-20T15:49:12;8.27;;;7.00;;